sensor_id;sensor_type;location;lat;lon;timestamp;pressure;altitude;pressure_sealevel;temperature;humidity
9822;BME280;4950;46.042;14.472;2022-10-31T00:00:45;98612.34;;;12.94;85.01
9822;BME280;4950;46.042;14.472;2022-10-31T00:03:12;98616.44;;;12.97;84.87
9822;BME280;4950;46.042;14.472;2022-10-31T00:05:40;98611.72;;;12.92;85.01
9822;BME280;4950;46.042;14.472;2022-10-31T00:08:07;98620.06;;;12.88;85.18
9822;BME280;4950;46.042;14.472;2022-10-31T00:10:37;98620.38;;;12.84;85.41
9822;BME280;4950;46.042;14.472;2022-10-31T00:13:04;98610.97;;;12.83;85.19
9822;BME280;4950;46.042;14.472;2022-10-31T00:15:32;98605.91;;;12.82;85.45
9822;BME280;4950;46.042;14.472;2022-10-31T00:18:00;98611.13;;;12.82;85.34
9822;BME280;4950;46.042;14.472;2022-10-31T00:20:27;98613.41;;;12.85;85.54
9822;BME280;4950;46.042;14.472;2022-10-31T00:22:54;98609.16;;;12.84;85.88
9822;BME280;4950;46.042;14.472;2022-10-31T00:25:23;98611.28;;;12.80;86.03
9822;BME280;4950;46.042;14.472;2022-10-31T00:27:50;98606.44;;;12.77;86.34
9822;BME280;4950;46.042;14.472;2022-10-31T00:30:16;98604.28;;;12.81;86.62
9822;BME280;4950;46.042;14.472;2022-10-31T00:32:43;98601.38;;;12.76;86.49
9822;BME280;4950;46.042;14.472;2022-10-31T00:35:11;98611.63;;;12.77;86.33
9822;BME280;4950;46.042;14.472;2022-10-31T00:37:37;98613.28;;;12.70;86.53
9822;BME280;4950;46.042;14.472;2022-10-31T00:40:05;98608.88;;;12.71;86.60
9822;BME280;4950;46.042;14.472;2022-10-31T00:42:32;98614.25;;;12.69;86.45
9822;BME280;4950;46.042;14.472;2022-10-31T00:44:59;98614.00;;;12.56;85.95
9822;BME280;4950;46.042;14.472;2022-10-31T00:47:25;98612.75;;;12.35;86.39
9822;BME280;4950;46.042;14.472;2022-10-31T00:49:52;98615.88;;;12.31;87.74
9822;BME280;4950;46.042;14.472;2022-10-31T00:52:20;98612.63;;;12.29;88.50
9822;BME280;4950;46.042;14.472;2022-10-31T00:54:46;98611.47;;;12.31;88.89
9822;BME280;4950;46.042;14.472;2022-10-31T00:57:14;98610.78;;;12.37;88.90
9822;BME280;4950;46.042;14.472;2022-10-31T00:59:41;98613.09;;;12.40;89.10
9822;BME280;4950;46.042;14.472;2022-10-31T01:02:07;98612.25;;;12.40;89.03
9822;BME280;4950;46.042;14.472;2022-10-31T01:04:34;98604.44;;;12.40;89.43
9822;BME280;4950;46.042;14.472;2022-10-31T01:07:00;98611.94;;;12.35;90.09
9822;BME280;4950;46.042;14.472;2022-10-31T01:09:28;98607.03;;;12.40;90.49
9822;BME280;4950;46.042;14.472;2022-10-31T01:11:55;98599.41;;;12.38;90.26
9822;BME280;4950;46.042;14.472;2022-10-31T01:14:22;98603.59;;;12.48;89.97
9822;BME280;4950;46.042;14.472;2022-10-31T01:16:48;98606.19;;;12.56;89.74
9822;BME280;4950;46.042;14.472;2022-10-31T01:19:15;98598.66;;;12.61;89.57
9822;BME280;4950;46.042;14.472;2022-10-31T01:21:41;98596.91;;;12.53;89.80
9822;BME280;4950;46.042;14.472;2022-10-31T01:24:08;98598.56;;;12.46;90.89
9822;BME280;4950;46.042;14.472;2022-10-31T01:26:36;98599.88;;;12.42;90.78
9822;BME280;4950;46.042;14.472;2022-10-31T01:29:04;98595.50;;;12.42;91.03
9822;BME280;4950;46.042;14.472;2022-10-31T01:31:33;98593.69;;;12.43;90.95
9822;BME280;4950;46.042;14.472;2022-10-31T01:34:01;98593.38;;;12.38;91.01
9822;BME280;4950;46.042;14.472;2022-10-31T01:36:29;98598.13;;;12.34;90.87
9822;BME280;4950;46.042;14.472;2022-10-31T01:38:58;98593.06;;;12.41;90.21
9822;BME280;4950;46.042;14.472;2022-10-31T01:41:27;98593.84;;;12.41;90.04
9822;BME280;4950;46.042;14.472;2022-10-31T01:43:56;98593.84;;;12.41;89.51
9822;BME280;4950;46.042;14.472;2022-10-31T01:46:26;98586.03;;;12.41;89.83
9822;BME280;4950;46.042;14.472;2022-10-31T01:48:55;98595.19;;;12.37;89.75
9822;BME280;4950;46.042;14.472;2022-10-31T01:51:25;98593.88;;;12.33;89.91
9822;BME280;4950;46.042;14.472;2022-10-31T01:53:57;98591.59;;;12.30;90.42
9822;BME280;4950;46.042;14.472;2022-10-31T01:56:25;98583.97;;;12.37;90.61
9822;BME280;4950;46.042;14.472;2022-10-31T01:58:53;98586.22;;;12.40;90.90
9822;BME280;4950;46.042;14.472;2022-10-31T02:01:22;98584.91;;;12.44;90.77
9822;BME280;4950;46.042;14.472;2022-10-31T02:03:49;98579.03;;;12.42;90.84
9822;BME280;4950;46.042;14.472;2022-10-31T02:06:22;98578.91;;;12.35;91.61
9822;BME280;4950;46.042;14.472;2022-10-31T02:08:55;98590.81;;;12.30;91.73
9822;BME280;4950;46.042;14.472;2022-10-31T02:11:23;98582.06;;;12.22;91.69
9822;BME280;4950;46.042;14.472;2022-10-31T02:13:50;98583.06;;;12.13;92.16
9822;BME280;4950;46.042;14.472;2022-10-31T02:16:17;98580.13;;;12.08;92.60
9822;BME280;4950;46.042;14.472;2022-10-31T02:18:45;98586.63;;;12.04;91.76
9822;BME280;4950;46.042;14.472;2022-10-31T02:21:16;98580.28;;;12.07;91.87
9822;BME280;4950;46.042;14.472;2022-10-31T02:24:28;98576.06;;;12.05;91.46
9822;BME280;4950;46.042;14.472;2022-10-31T02:30:05;98583.72;;;12.07;90.76
9822;BME280;4950;46.042;14.472;2022-10-31T02:32:43;98580.78;;;12.02;90.64
9822;BME280;4950;46.042;14.472;2022-10-31T02:35:20;98580.16;;;12.00;90.98
9822;BME280;4950;46.042;14.472;2022-10-31T02:37:54;98582.09;;;11.98;90.85
9822;BME280;4950;46.042;14.472;2022-10-31T02:40:26;98581.75;;;12.01;90.51
9822;BME280;4950;46.042;14.472;2022-10-31T02:43:00;98583.88;;;12.05;90.47
9822;BME280;4950;46.042;14.472;2022-10-31T02:45:31;98580.47;;;12.05;90.19
9822;BME280;4950;46.042;14.472;2022-10-31T02:48:07;98582.72;;;12.08;90.11
9822;BME280;4950;46.042;14.472;2022-10-31T02:50:39;98584.84;;;12.04;89.50
9822;BME280;4950;46.042;14.472;2022-10-31T02:53:07;98583.72;;;11.99;89.78
9822;BME280;4950;46.042;14.472;2022-10-31T02:55:49;98583.38;;;12.02;89.26
9822;BME280;4950;46.042;14.472;2022-10-31T02:58:21;98579.81;;;12.03;88.86
9822;BME280;4950;46.042;14.472;2022-10-31T03:00:59;98585.84;;;12.03;89.23
9822;BME280;4950;46.042;14.472;2022-10-31T03:03:34;98584.69;;;12.06;88.87
9822;BME280;4950;46.042;14.472;2022-10-31T03:06:06;98585.66;;;11.97;89.41
9822;BME280;4950;46.042;14.472;2022-10-31T03:08:41;98590.72;;;11.82;89.97
9822;BME280;4950;46.042;14.472;2022-10-31T03:11:09;98598.03;;;11.78;90.43
9822;BME280;4950;46.042;14.472;2022-10-31T03:13:41;98584.84;;;11.72;90.66
9822;BME280;4950;46.042;14.472;2022-10-31T03:16:14;98589.59;;;11.68;90.85
9822;BME280;4950;46.042;14.472;2022-10-31T03:18:46;98594.94;;;11.66;91.05
9822;BME280;4950;46.042;14.472;2022-10-31T03:21:19;98593.16;;;11.67;91.09
9822;BME280;4950;46.042;14.472;2022-10-31T03:23:50;98589.75;;;11.66;91.08
9822;BME280;4950;46.042;14.472;2022-10-31T03:26:18;98603.41;;;11.69;91.55
9822;BME280;4950;46.042;14.472;2022-10-31T03:28:49;98593.31;;;11.65;92.07
9822;BME280;4950;46.042;14.472;2022-10-31T03:31:19;98591.34;;;11.68;92.17
9822;BME280;4950;46.042;14.472;2022-10-31T03:33:51;98593.50;;;11.72;92.02
9822;BME280;4950;46.042;14.472;2022-10-31T03:36:18;98599.34;;;11.74;92.06
9822;BME280;4950;46.042;14.472;2022-10-31T03:38:46;98607.78;;;11.76;92.04
9822;BME280;4950;46.042;14.472;2022-10-31T03:41:17;98601.13;;;11.74;92.77
9822;BME280;4950;46.042;14.472;2022-10-31T03:43:49;98598.84;;;11.79;92.38
9822;BME280;4950;46.042;14.472;2022-10-31T03:46:18;98606.78;;;11.77;92.37
9822;BME280;4950;46.042;14.472;2022-10-31T03:48:45;98610.53;;;11.75;92.24
9822;BME280;4950;46.042;14.472;2022-10-31T03:51:16;98608.25;;;11.72;91.98
9822;BME280;4950;46.042;14.472;2022-10-31T03:53:51;98617.69;;;11.73;92.14
9822;BME280;4950;46.042;14.472;2022-10-31T03:56:23;98610.22;;;11.70;91.83
9822;BME280;4950;46.042;14.472;2022-10-31T03:58:57;98613.47;;;11.63;92.30
9822;BME280;4950;46.042;14.472;2022-10-31T04:01:24;98608.09;;;11.65;91.50
9822;BME280;4950;46.042;14.472;2022-10-31T04:03:52;98602.91;;;11.65;91.93
9822;BME280;4950;46.042;14.472;2022-10-31T04:06:22;98606.50;;;11.64;91.39
9822;BME280;4950;46.042;14.472;2022-10-31T04:08:53;98611.69;;;11.64;91.50
9822;BME280;4950;46.042;14.472;2022-10-31T04:11:23;98607.63;;;11.61;91.10
9822;BME280;4950;46.042;14.472;2022-10-31T04:13:52;98615.41;;;11.61;90.79
9822;BME280;4950;46.042;14.472;2022-10-31T04:16:21;98607.97;;;11.58;90.57
9822;BME280;4950;46.042;14.472;2022-10-31T04:18:48;98605.66;;;11.55;90.86
9822;BME280;4950;46.042;14.472;2022-10-31T04:21:14;98606.16;;;11.51;90.77
9822;BME280;4950;46.042;14.472;2022-10-31T04:23:43;98612.16;;;11.43;91.09
9822;BME280;4950;46.042;14.472;2022-10-31T04:26:10;98619.47;;;11.48;91.17
9822;BME280;4950;46.042;14.472;2022-10-31T04:28:38;98612.66;;;11.46;91.15
9822;BME280;4950;46.042;14.472;2022-10-31T04:31:05;98610.53;;;11.50;90.88
9822;BME280;4950;46.042;14.472;2022-10-31T04:33:31;98615.56;;;11.52;90.64
9822;BME280;4950;46.042;14.472;2022-10-31T04:35:58;98618.34;;;11.50;90.86
9822;BME280;4950;46.042;14.472;2022-10-31T04:38:24;98612.97;;;11.43;90.90
9822;BME280;4950;46.042;14.472;2022-10-31T04:40:52;98612.31;;;11.41;90.84
9822;BME280;4950;46.042;14.472;2022-10-31T04:43:19;98614.44;;;11.46;89.90
9822;BME280;4950;46.042;14.472;2022-10-31T04:45:45;98609.22;;;11.46;89.54
9822;BME280;4950;46.042;14.472;2022-10-31T04:48:12;98610.53;;;11.42;89.78
9822;BME280;4950;46.042;14.472;2022-10-31T04:50:39;98606.78;;;11.36;90.04
9822;BME280;4950;46.042;14.472;2022-10-31T04:53:06;98617.19;;;11.36;89.75
9822;BME280;4950;46.042;14.472;2022-10-31T04:55:32;98605.63;;;11.31;90.26
9822;BME280;4950;46.042;14.472;2022-10-31T04:58:00;98609.22;;;11.30;90.29
9822;BME280;4950;46.042;14.472;2022-10-31T05:00:27;98611.31;;;11.26;89.94
9822;BME280;4950;46.042;14.472;2022-10-31T05:02:55;98615.72;;;11.25;90.01
9822;BME280;4950;46.042;14.472;2022-10-31T05:05:23;98612.97;;;11.27;90.29
9822;BME280;4950;46.042;14.472;2022-10-31T05:07:50;98615.38;;;11.29;89.84
9822;BME280;4950;46.042;14.472;2022-10-31T05:10:19;98612.78;;;11.29;89.72
9822;BME280;4950;46.042;14.472;2022-10-31T05:12:46;98615.72;;;11.25;89.44
9822;BME280;4950;46.042;14.472;2022-10-31T05:15:15;98615.53;;;11.19;89.68
9822;BME280;4950;46.042;14.472;2022-10-31T05:17:42;98617.47;;;11.17;90.37
9822;BME280;4950;46.042;14.472;2022-10-31T05:20:10;98610.97;;;11.21;90.18
9822;BME280;4950;46.042;14.472;2022-10-31T05:22:37;98616.16;;;11.13;90.35
9822;BME280;4950;46.042;14.472;2022-10-31T05:25:04;98613.56;;;11.13;90.27
9822;BME280;4950;46.042;14.472;2022-10-31T05:27:30;98621.69;;;11.10;90.28
9822;BME280;4950;46.042;14.472;2022-10-31T05:29:57;98618.91;;;11.11;90.70
9822;BME280;4950;46.042;14.472;2022-10-31T05:32:25;98616.19;;;11.21;91.03
9822;BME280;4950;46.042;14.472;2022-10-31T05:34:51;98612.78;;;11.20;91.31
9822;BME280;4950;46.042;14.472;2022-10-31T05:37:18;98605.78;;;11.21;91.14
9822;BME280;4950;46.042;14.472;2022-10-31T05:39:44;98610.69;;;11.24;90.48
9822;BME280;4950;46.042;14.472;2022-10-31T05:42:11;98611.47;;;11.16;90.38
9822;BME280;4950;46.042;14.472;2022-10-31T05:44:38;98610.66;;;11.16;90.71
9822;BME280;4950;46.042;14.472;2022-10-31T05:47:05;98613.72;;;11.11;90.87
9822;BME280;4950;46.042;14.472;2022-10-31T05:49:33;98619.41;;;11.06;91.25
9822;BME280;4950;46.042;14.472;2022-10-31T05:51:59;98619.25;;;11.00;91.61
9822;BME280;4950;46.042;14.472;2022-10-31T05:54:26;98620.53;;;10.96;92.32
9822;BME280;4950;46.042;14.472;2022-10-31T05:56:53;98621.50;;;10.95;92.37
9822;BME280;4950;46.042;14.472;2022-10-31T05:59:19;98621.50;;;10.95;92.42
9822;BME280;4950;46.042;14.472;2022-10-31T06:01:46;98625.88;;;10.94;92.50
9822;BME280;4950;46.042;14.472;2022-10-31T06:04:13;98624.88;;;10.95;93.27
9822;BME280;4950;46.042;14.472;2022-10-31T06:06:41;98630.75;;;10.97;93.18
9822;BME280;4950;46.042;14.472;2022-10-31T06:09:07;98626.03;;;10.93;92.99
9822;BME280;4950;46.042;14.472;2022-10-31T06:11:34;98629.91;;;10.89;93.14
9822;BME280;4950;46.042;14.472;2022-10-31T06:14:01;98637.19;;;10.85;93.46
9822;BME280;4950;46.042;14.472;2022-10-31T06:16:27;98636.06;;;10.87;93.62
9822;BME280;4950;46.042;14.472;2022-10-31T06:18:54;98632.81;;;10.85;93.71
9822;BME280;4950;46.042;14.472;2022-10-31T06:21:21;98637.97;;;10.69;93.89
9822;BME280;4950;46.042;14.472;2022-10-31T06:23:49;98636.44;;;10.58;94.36
9822;BME280;4950;46.042;14.472;2022-10-31T06:26:15;98643.13;;;10.61;94.58
9822;BME280;4950;46.042;14.472;2022-10-31T06:28:42;98645.75;;;10.69;95.16
9822;BME280;4950;46.042;14.472;2022-10-31T06:31:09;98642.84;;;10.72;94.92
9822;BME280;4950;46.042;14.472;2022-10-31T06:33:35;98636.66;;;10.73;94.88
9822;BME280;4950;46.042;14.472;2022-10-31T06:36:03;98644.28;;;10.66;94.52
9822;BME280;4950;46.042;14.472;2022-10-31T06:38:29;98644.84;;;10.52;94.98
9822;BME280;4950;46.042;14.472;2022-10-31T06:40:57;98649.88;;;10.54;95.25
9822;BME280;4950;46.042;14.472;2022-10-31T06:43:24;98649.75;;;10.55;94.89
9822;BME280;4950;46.042;14.472;2022-10-31T06:45:51;98653.00;;;10.57;95.11
9822;BME280;4950;46.042;14.472;2022-10-31T06:48:17;98648.16;;;10.62;95.58
9822;BME280;4950;46.042;14.472;2022-10-31T06:50:44;98653.03;;;10.65;95.21
9822;BME280;4950;46.042;14.472;2022-10-31T06:53:11;98654.97;;;10.63;95.29
9822;BME280;4950;46.042;14.472;2022-10-31T06:55:38;98657.72;;;10.62;95.66
9822;BME280;4950;46.042;14.472;2022-10-31T06:58:06;98653.34;;;10.62;95.71
9822;BME280;4950;46.042;14.472;2022-10-31T07:00:33;98658.38;;;10.64;95.98
9822;BME280;4950;46.042;14.472;2022-10-31T07:03:01;98663.63;;;10.72;95.95
9822;BME280;4950;46.042;14.472;2022-10-31T07:05:28;98658.09;;;10.75;95.70
9822;BME280;4950;46.042;14.472;2022-10-31T07:07:56;98671.41;;;10.72;95.51
9822;BME280;4950;46.042;14.472;2022-10-31T07:10:24;98667.69;;;10.75;95.34
9822;BME280;4950;46.042;14.472;2022-10-31T07:12:54;98662.03;;;10.87;95.56
9822;BME280;4950;46.042;14.472;2022-10-31T07:15:22;98665.16;;;10.99;94.95
9822;BME280;4950;46.042;14.472;2022-10-31T07:17:49;98668.13;;;11.04;93.97
9822;BME280;4950;46.042;14.472;2022-10-31T07:20:16;98672.81;;;11.01;94.21
9822;BME280;4950;46.042;14.472;2022-10-31T07:22:43;98675.09;;;11.04;93.79
9822;BME280;4950;46.042;14.472;2022-10-31T07:25:10;98669.75;;;11.05;94.28
9822;BME280;4950;46.042;14.472;2022-10-31T07:27:37;98673.00;;;11.07;94.63
9822;BME280;4950;46.042;14.472;2022-10-31T07:30:06;98668.94;;;11.05;94.40
9822;BME280;4950;46.042;14.472;2022-10-31T07:32:41;98675.56;;;10.99;94.97
9822;BME280;4950;46.042;14.472;2022-10-31T07:35:08;98672.00;;;11.00;94.78
9822;BME280;4950;46.042;14.472;2022-10-31T07:37:36;98668.44;;;11.01;94.72
9822;BME280;4950;46.042;14.472;2022-10-31T07:40:04;98676.06;;;11.03;95.45
9822;BME280;4950;46.042;14.472;2022-10-31T07:42:34;98665.09;;;11.17;95.25
9822;BME280;4950;46.042;14.472;2022-10-31T07:45:01;98671.25;;;11.24;94.55
9822;BME280;4950;46.042;14.472;2022-10-31T07:47:27;98666.72;;;11.26;94.27
9822;BME280;4950;46.042;14.472;2022-10-31T07:49:55;98669.31;;;11.26;94.34
9822;BME280;4950;46.042;14.472;2022-10-31T07:52:22;98678.25;;;11.24;94.33
9822;BME280;4950;46.042;14.472;2022-10-31T07:54:50;98669.94;;;11.20;94.58
9822;BME280;4950;46.042;14.472;2022-10-31T07:57:17;98672.09;;;11.33;94.17
9822;BME280;4950;46.042;14.472;2022-10-31T07:59:43;98680.41;;;11.37;93.83
9822;BME280;4950;46.042;14.472;2022-10-31T08:02:10;98675.88;;;11.47;93.68
9822;BME280;4950;46.042;14.472;2022-10-31T08:04:37;98670.81;;;11.54;93.22
9822;BME280;4950;46.042;14.472;2022-10-31T08:07:05;98667.28;;;11.71;91.34
9822;BME280;4950;46.042;14.472;2022-10-31T08:09:31;98674.78;;;11.74;91.37
9822;BME280;4950;46.042;14.472;2022-10-31T08:11:58;98670.22;;;11.76;91.11
9822;BME280;4950;46.042;14.472;2022-10-31T08:14:24;98663.06;;;11.70;91.31
9822;BME280;4950;46.042;14.472;2022-10-31T08:16:52;98661.44;;;11.69;92.25
9822;BME280;4950;46.042;14.472;2022-10-31T08:19:18;98660.63;;;11.77;92.24
9822;BME280;4950;46.042;14.472;2022-10-31T08:21:45;98671.84;;;11.85;91.96
9822;BME280;4950;46.042;14.472;2022-10-31T08:24:13;98660.81;;;11.92;91.67
9822;BME280;4950;46.042;14.472;2022-10-31T08:26:40;98661.78;;;11.99;91.72
9822;BME280;4950;46.042;14.472;2022-10-31T08:29:06;98661.78;;;12.07;91.70
9822;BME280;4950;46.042;14.472;2022-10-31T08:31:33;98658.97;;;12.33;91.06
9822;BME280;4950;46.042;14.472;2022-10-31T08:33:59;98656.97;;;12.52;91.23
9822;BME280;4950;46.042;14.472;2022-10-31T08:36:27;98660.84;;;12.64;90.31
9822;BME280;4950;46.042;14.472;2022-10-31T08:38:54;98651.53;;;12.78;90.07
9822;BME280;4950;46.042;14.472;2022-10-31T08:41:22;98648.78;;;13.02;89.40
9822;BME280;4950;46.042;14.472;2022-10-31T08:43:48;98651.56;;;13.40;87.28
9822;BME280;4950;46.042;14.472;2022-10-31T08:46:15;98653.78;;;13.75;86.62
9822;BME280;4950;46.042;14.472;2022-10-31T08:48:42;98648.97;;;14.01;86.11
9822;BME280;4950;46.042;14.472;2022-10-31T08:51:09;98640.75;;;14.28;83.44
9822;BME280;4950;46.042;14.472;2022-10-31T08:53:36;98643.25;;;14.51;83.19
9822;BME280;4950;46.042;14.472;2022-10-31T08:56:03;98643.81;;;14.76;80.47
9822;BME280;4950;46.042;14.472;2022-10-31T08:58:31;98630.44;;;15.00;79.28
9822;BME280;4950;46.042;14.472;2022-10-31T09:00:59;98634.00;;;15.29;77.12
9822;BME280;4950;46.042;14.472;2022-10-31T09:03:28;98631.59;;;15.56;74.58
9822;BME280;4950;46.042;14.472;2022-10-31T09:05:56;98628.66;;;15.81;73.97
9822;BME280;4950;46.042;14.472;2022-10-31T09:08:24;98630.81;;;16.05;73.07
9822;BME280;4950;46.042;14.472;2022-10-31T09:10:51;98620.72;;;16.30;72.33
9822;BME280;4950;46.042;14.472;2022-10-31T09:13:19;98622.72;;;16.63;70.81
9822;BME280;4950;46.042;14.472;2022-10-31T09:15:49;98618.34;;;16.77;69.91
9822;BME280;4950;46.042;14.472;2022-10-31T09:18:17;98619.69;;;17.08;67.79
9822;BME280;4950;46.042;14.472;2022-10-31T09:20:45;98618.31;;;17.25;66.52
9822;BME280;4950;46.042;14.472;2022-10-31T09:23:13;98627.25;;;17.44;64.89
9822;BME280;4950;46.042;14.472;2022-10-31T09:25:41;98618.34;;;17.45;64.34
9822;BME280;4950;46.042;14.472;2022-10-31T09:28:10;98618.78;;;17.75;62.50
9822;BME280;4950;46.042;14.472;2022-10-31T09:30:38;98625.47;;;17.71;61.12
9822;BME280;4950;46.042;14.472;2022-10-31T09:33:08;98624.22;;;17.81;60.71
9822;BME280;4950;46.042;14.472;2022-10-31T09:35:36;98624.25;;;17.94;61.46
9822;BME280;4950;46.042;14.472;2022-10-31T09:38:04;98623.88;;;18.10;60.93
9822;BME280;4950;46.042;14.472;2022-10-31T09:40:33;98618.38;;;18.32;60.20
9822;BME280;4950;46.042;14.472;2022-10-31T09:43:07;98618.72;;;18.55;60.50
9822;BME280;4950;46.042;14.472;2022-10-31T09:45:40;98613.78;;;18.72;59.67
9822;BME280;4950;46.042;14.472;2022-10-31T09:48:35;98618.22;;;18.85;59.72
9822;BME280;4950;46.042;14.472;2022-10-31T09:51:06;98603.16;;;18.99;59.43
9822;BME280;4950;46.042;14.472;2022-10-31T09:53:38;98609.03;;;19.33;58.05
9822;BME280;4950;46.042;14.472;2022-10-31T09:56:08;98605.53;;;19.39;57.09
9822;BME280;4950;46.042;14.472;2022-10-31T09:58:40;98603.09;;;19.44;56.27
9822;BME280;4950;46.042;14.472;2022-10-31T10:01:19;98599.50;;;19.64;56.15
9822;BME280;4950;46.042;14.472;2022-10-31T10:03:53;98603.53;;;19.73;55.02
9822;BME280;4950;46.042;14.472;2022-10-31T10:06:24;98591.69;;;19.82;55.20
9822;BME280;4950;46.042;14.472;2022-10-31T10:08:51;98598.16;;;19.86;54.76
9822;BME280;4950;46.042;14.472;2022-10-31T10:11:34;98592.69;;;20.06;53.87
9822;BME280;4950;46.042;14.472;2022-10-31T10:14:17;98593.34;;;20.20;54.05
9822;BME280;4950;46.042;14.472;2022-10-31T10:17:06;98581.84;;;20.51;51.75
9822;BME280;4950;46.042;14.472;2022-10-31T10:19:48;98587.28;;;20.75;52.44
9822;BME280;4950;46.042;14.472;2022-10-31T10:22:25;98577.44;;;20.82;52.20
9822;BME280;4950;46.042;14.472;2022-10-31T10:25:07;98583.44;;;20.89;51.05
9822;BME280;4950;46.042;14.472;2022-10-31T10:27:46;98584.72;;;20.99;51.24
9822;BME280;4950;46.042;14.472;2022-10-31T10:30:18;98573.56;;;21.15;51.16
9822;BME280;4950;46.042;14.472;2022-10-31T10:32:47;98575.41;;;21.26;50.60
9822;BME280;4950;46.042;14.472;2022-10-31T10:35:23;98573.31;;;21.47;50.11
9822;BME280;4950;46.042;14.472;2022-10-31T10:37:52;98572.19;;;21.78;49.65
9822;BME280;4950;46.042;14.472;2022-10-31T10:40:24;98571.59;;;22.00;49.08
9822;BME280;4950;46.042;14.472;2022-10-31T10:42:59;98568.59;;;22.08;49.11
9822;BME280;4950;46.042;14.472;2022-10-31T10:45:46;98563.22;;;22.26;47.35
9822;BME280;4950;46.042;14.472;2022-10-31T10:48:49;98548.56;;;22.36;47.28
9822;BME280;4950;46.042;14.472;2022-10-31T10:51:23;98555.22;;;22.50;46.75
9822;BME280;4950;46.042;14.472;2022-10-31T10:54:04;98545.16;;;22.64;45.98
9822;BME280;4950;46.042;14.472;2022-10-31T10:56:47;98537.13;;;22.87;45.87
9822;BME280;4950;46.042;14.472;2022-10-31T10:59:20;98539.47;;;23.01;45.45
9822;BME280;4950;46.042;14.472;2022-10-31T11:01:48;98540.09;;;23.37;45.29
9822;BME280;4950;46.042;14.472;2022-10-31T11:04:29;98535.66;;;23.42;44.70
9822;BME280;4950;46.042;14.472;2022-10-31T11:06:59;98532.59;;;23.68;44.41
9822;BME280;4950;46.042;14.472;2022-10-31T11:09:25;98534.44;;;23.84;43.51
9822;BME280;4950;46.042;14.472;2022-10-31T11:11:53;98526.34;;;24.13;42.74
9822;BME280;4950;46.042;14.472;2022-10-31T11:14:20;98524.13;;;24.27;42.99
9822;BME280;4950;46.042;14.472;2022-10-31T11:16:50;98526.75;;;24.49;42.22
9822;BME280;4950;46.042;14.472;2022-10-31T11:19:20;98518.13;;;24.58;42.28
9822;BME280;4950;46.042;14.472;2022-10-31T11:21:48;98519.66;;;24.76;41.36
9822;BME280;4950;46.042;14.472;2022-10-31T11:24:17;98510.28;;;24.96;40.76
9822;BME280;4950;46.042;14.472;2022-10-31T11:26:47;98510.84;;;25.03;40.64
9822;BME280;4950;46.042;14.472;2022-10-31T11:29:16;98508.31;;;25.18;40.10
9822;BME280;4950;46.042;14.472;2022-10-31T11:31:44;98511.38;;;25.32;40.24
9822;BME280;4950;46.042;14.472;2022-10-31T11:34:16;98502.69;;;25.42;39.33
9822;BME280;4950;46.042;14.472;2022-10-31T11:36:44;98503.31;;;25.59;39.49
9822;BME280;4950;46.042;14.472;2022-10-31T11:39:18;98503.47;;;25.85;39.54
9822;BME280;4950;46.042;14.472;2022-10-31T11:41:46;98499.00;;;25.91;39.14
9822;BME280;4950;46.042;14.472;2022-10-31T11:44:16;98500.16;;;26.10;38.62
9822;BME280;4950;46.042;14.472;2022-10-31T11:46:46;98501.00;;;26.26;38.31
9822;BME280;4950;46.042;14.472;2022-10-31T11:49:16;98493.63;;;26.49;37.74
9822;BME280;4950;46.042;14.472;2022-10-31T11:51:48;98495.53;;;26.64;37.15
9822;BME280;4950;46.042;14.472;2022-10-31T11:54:21;98484.09;;;26.73;37.31
9822;BME280;4950;46.042;14.472;2022-10-31T11:56:50;98479.31;;;27.22;36.32
9822;BME280;4950;46.042;14.472;2022-10-31T11:59:25;98475.88;;;27.36;36.41
9822;BME280;4950;46.042;14.472;2022-10-31T12:01:54;98472.88;;;27.58;36.35
9822;BME280;4950;46.042;14.472;2022-10-31T12:04:29;98468.81;;;27.76;35.90
9822;BME280;4950;46.042;14.472;2022-10-31T12:07:00;98466.69;;;27.84;35.57
9822;BME280;4950;46.042;14.472;2022-10-31T12:09:29;98468.28;;;27.95;36.07
9822;BME280;4950;46.042;14.472;2022-10-31T12:12:10;98461.44;;;28.28;35.91
9822;BME280;4950;46.042;14.472;2022-10-31T12:14:50;98458.88;;;28.58;35.50
9822;BME280;4950;46.042;14.472;2022-10-31T12:17:23;98463.72;;;28.90;34.05
9822;BME280;4950;46.042;14.472;2022-10-31T12:20:00;98453.50;;;28.97;33.69
9822;BME280;4950;46.042;14.472;2022-10-31T12:22:42;98454.44;;;29.11;34.16
9822;BME280;4950;46.042;14.472;2022-10-31T12:25:23;98458.28;;;29.29;33.80
9822;BME280;4950;46.042;14.472;2022-10-31T12:28:04;98454.31;;;29.27;33.87
9822;BME280;4950;46.042;14.472;2022-10-31T12:30:47;98451.25;;;29.39;34.32
9822;BME280;4950;46.042;14.472;2022-10-31T12:33:26;98447.16;;;29.22;34.28
9822;BME280;4950;46.042;14.472;2022-10-31T12:36:10;98443.03;;;29.01;34.82
9822;BME280;4950;46.042;14.472;2022-10-31T12:38:48;98434.69;;;29.12;34.90
9822;BME280;4950;46.042;14.472;2022-10-31T12:41:35;98436.84;;;29.34;34.08
9822;BME280;4950;46.042;14.472;2022-10-31T12:44:06;98435.91;;;29.49;35.05
9822;BME280;4950;46.042;14.472;2022-10-31T12:46:53;98436.53;;;29.65;33.81
9822;BME280;4950;46.042;14.472;2022-10-31T12:49:34;98436.59;;;29.84;34.37
9822;BME280;4950;46.042;14.472;2022-10-31T12:52:20;98432.06;;;30.04;33.42
9822;BME280;4950;46.042;14.472;2022-10-31T12:55:01;98436.41;;;30.19;33.32
9822;BME280;4950;46.042;14.472;2022-10-31T12:57:36;98428.69;;;30.36;32.74
9822;BME280;4950;46.042;14.472;2022-10-31T13:00:11;98423.53;;;30.59;32.65
9822;BME280;4950;46.042;14.472;2022-10-31T13:02:44;98419.72;;;30.79;32.62
9822;BME280;4950;46.042;14.472;2022-10-31T13:05:17;98416.22;;;30.97;32.71
9822;BME280;4950;46.042;14.472;2022-10-31T13:07:49;98411.97;;;31.10;32.98
9822;BME280;4950;46.042;14.472;2022-10-31T13:10:22;98407.03;;;31.31;32.22
9822;BME280;4950;46.042;14.472;2022-10-31T13:12:55;98415.78;;;31.37;32.23
9822;BME280;4950;46.042;14.472;2022-10-31T13:15:26;98409.72;;;31.45;32.38
9822;BME280;4950;46.042;14.472;2022-10-31T13:17:55;98411.63;;;31.44;32.12
9822;BME280;4950;46.042;14.472;2022-10-31T13:20:26;98406.75;;;31.33;32.46
9822;BME280;4950;46.042;14.472;2022-10-31T13:22:56;98403.16;;;31.23;31.54
9822;BME280;4950;46.042;14.472;2022-10-31T13:25:28;98400.97;;;31.12;32.29
9822;BME280;4950;46.042;14.472;2022-10-31T13:28:01;98399.34;;;30.97;32.17